createdAt,value
2018-08-20T00:00:49.741Z,0
2018-08-20T00:01:59.921Z,0
2018-08-20T00:03:10.058Z,0
2018-08-20T00:04:20.213Z,0
2018-08-20T00:05:30.809Z,0
2018-08-20T00:06:40.929Z,0
2018-08-20T00:07:50.811Z,0
2018-08-20T00:09:01.021Z,0
2018-08-20T00:10:10.910Z,0
2018-08-20T00:11:21.103Z,0
2018-08-20T00:12:31.259Z,0
2018-08-20T00:13:41.426Z,0
2018-08-20T00:14:51.599Z,0
2018-08-20T00:16:01.749Z,0
2018-08-20T00:17:11.919Z,0
2018-08-20T00:18:22.039Z,0
2018-08-20T00:19:32.204Z,0
2018-08-20T00:20:42.337Z,0
2018-08-20T00:21:52.494Z,0
2018-08-20T00:23:03.715Z,0
2018-08-20T00:24:13.899Z,0
2018-08-20T00:25:23.673Z,0
2018-08-20T00:26:33.855Z,0
2018-08-20T00:27:43.750Z,0
2018-08-20T00:28:53.895Z,0
2018-08-20T00:30:04.047Z,0
2018-08-20T00:31:14.194Z,0
2018-08-20T00:32:24.329Z,0
2018-08-20T00:33:34.462Z,0
2018-08-20T00:34:44.604Z,0
2018-08-20T00:35:54.751Z,0
2018-08-20T00:37:04.900Z,0
2018-08-20T00:38:15.014Z,0
2018-08-20T00:39:25.227Z,0
2018-08-20T00:40:34.847Z,0
2018-08-20T00:41:44.991Z,0
2018-08-20T00:42:56.119Z,0
2018-08-20T00:44:05.857Z,0
2018-08-20T00:45:16.015Z,0
2018-08-20T00:46:26.202Z,0
2018-08-20T00:47:36.370Z,0
2018-08-20T00:48:46.514Z,0
2018-08-20T00:49:56.649Z,0
2018-08-20T00:51:06.774Z,0
2018-08-20T00:52:16.904Z,0
2018-08-20T00:53:27.062Z,0
2018-08-20T00:54:37.184Z,0
2018-08-20T00:55:47.357Z,0
2018-08-20T00:56:57.153Z,0
2018-08-20T00:58:07.183Z,0
2018-08-20T00:59:17.301Z,0
2018-08-20T01:00:27.415Z,0
2018-08-20T01:01:37.643Z,0
2018-08-20T01:02:47.855Z,0
2018-08-20T01:03:58.035Z,0
2018-08-20T01:05:08.053Z,0
2018-08-20T01:06:18.186Z,0
2018-08-20T01:07:28.316Z,0
2018-08-20T01:08:38.471Z,0
2018-08-20T01:09:48.599Z,0
2018-08-20T01:10:58.468Z,0
2018-08-20T01:12:08.342Z,0
2018-08-20T01:13:18.471Z,0
2018-08-20T01:14:28.598Z,0
2018-08-20T01:15:38.514Z,0
2018-08-20T01:16:48.651Z,0
2018-08-20T01:17:58.781Z,0
2018-08-20T01:19:08.932Z,0
2018-08-20T01:20:20.054Z,0
2018-08-20T01:21:30.271Z,0
2018-08-20T01:22:40.525Z,0
2018-08-20T01:23:50.474Z,0
2018-08-20T01:25:00.416Z,0
2018-08-20T01:26:10.536Z,0
2018-08-20T01:27:20.654Z,0
2018-08-20T01:28:30.546Z,0
2018-08-20T01:29:40.660Z,0
2018-08-20T01:30:50.823Z,0
2018-08-20T01:32:00.926Z,0
2018-08-20T01:33:11.193Z,0
2018-08-20T01:34:21.427Z,0
2018-08-20T01:35:31.293Z,0
2018-08-20T01:36:41.469Z,0
2018-08-20T01:37:51.585Z,0
2018-08-20T01:39:01.807Z,0
2018-08-20T01:40:11.997Z,0
2018-08-20T01:41:22.177Z,0
2018-08-20T01:42:32.081Z,0
2018-08-20T01:43:42.206Z,0
2018-08-20T01:44:52.358Z,0
2018-08-20T01:46:02.542Z,0
2018-08-20T01:47:12.756Z,0
2018-08-20T01:48:22.651Z,0
2018-08-20T01:49:32.827Z,0
2018-08-20T01:50:42.985Z,0
2018-08-20T01:51:53.151Z,0
2018-08-20T01:53:03.286Z,0
2018-08-20T01:54:13.241Z,0
2018-08-20T01:55:23.417Z,0
2018-08-20T01:56:33.685Z,0
2018-08-20T01:57:43.899Z,0
2018-08-20T01:58:54.019Z,0
2018-08-20T02:00:04.184Z,0
2018-08-20T02:01:14.098Z,0
2018-08-20T02:02:23.991Z,0
2018-08-20T02:03:34.123Z,0
2018-08-20T02:04:43.883Z,0
2018-08-20T02:05:54.945Z,0
2018-08-20T02:07:04.574Z,0
2018-08-20T02:08:14.389Z,0
2018-08-20T02:09:24.585Z,0
2018-08-20T02:10:34.765Z,0
2018-08-20T02:11:44.969Z,0
2018-08-20T02:12:54.901Z,0
2018-08-20T02:14:05.085Z,0
2018-08-20T02:15:15.323Z,0
2018-08-20T02:16:24.935Z,0
2018-08-20T02:17:35.062Z,0
2018-08-20T02:18:44.928Z,0
2018-08-20T02:19:55.248Z,0
2018-08-20T02:21:05.156Z,0
2018-08-20T02:22:14.793Z,0
2018-08-20T02:23:24.932Z,0
2018-08-20T02:24:34.800Z,0
2018-08-20T02:25:44.173Z,0
2018-08-20T02:26:54.281Z,0
2018-08-20T02:28:04.406Z,0
2018-08-20T02:29:14.539Z,0
2018-08-20T02:30:24.904Z,0
2018-08-20T02:31:35.029Z,0
2018-08-20T02:32:45.185Z,0
2018-08-20T02:33:55.325Z,0
2018-08-20T02:35:05.423Z,0
2018-08-20T02:36:16.526Z,0
2018-08-20T02:37:26.691Z,0
2018-08-20T02:38:36.828Z,0
2018-08-20T02:39:46.964Z,0
2018-08-20T02:40:56.984Z,0
2018-08-20T02:42:07.130Z,0
2018-08-20T02:43:17.069Z,0
2018-08-20T02:44:27.285Z,0
2018-08-20T02:45:37.160Z,0
2018-08-20T02:46:47.406Z,0
2018-08-20T02:47:57.600Z,0
2018-08-20T02:49:07.788Z,0
2018-08-20T02:50:17.990Z,0
2018-08-20T02:51:28.342Z,0
2018-08-20T02:52:38.552Z,0
2018-08-20T02:53:48.663Z,0
2018-08-20T02:54:58.552Z,0
2018-08-20T02:56:08.446Z,0
2018-08-20T02:57:18.561Z,0
2018-08-20T02:58:28.676Z,0
2018-08-20T02:59:38.801Z,0
2018-08-20T03:00:49.003Z,0
2018-08-20T03:01:59.165Z,0
2018-08-20T03:03:09.580Z,0
2018-08-20T03:04:19.835Z,0
2018-08-20T03:05:29.961Z,0
2018-08-20T03:06:40.108Z,0
2018-08-20T03:07:50.301Z,0
2018-08-20T03:09:00.182Z,0
2018-08-20T03:10:10.079Z,0
2018-08-20T03:11:20.195Z,0
2018-08-20T03:12:30.329Z,0
2018-08-20T03:13:40.472Z,0
2018-08-20T03:14:50.286Z,0
2018-08-20T03:16:00.510Z,0
2018-08-20T03:17:10.387Z,0
2018-08-20T03:18:20.322Z,0
2018-08-20T03:19:30.477Z,0
2018-08-20T03:20:41.313Z,0
2018-08-20T03:21:51.183Z,0
2018-08-20T03:23:01.325Z,0
2018-08-20T03:24:11.599Z,0
2018-08-20T03:25:21.839Z,0
2018-08-20T03:26:31.964Z,0
2018-08-20T03:27:41.871Z,0
2018-08-20T03:28:52.042Z,0
2018-08-20T03:30:02.306Z,0
2018-08-20T03:31:12.440Z,0
2018-08-20T03:32:22.626Z,0
2018-08-20T03:33:32.759Z,0
2018-08-20T03:34:42.986Z,0
2018-08-20T03:35:53.187Z,0
2018-08-20T03:37:03.130Z,0
2018-08-20T03:38:13.264Z,0
2018-08-20T03:39:23.461Z,0
2018-08-20T03:40:33.630Z,0
2018-08-20T03:41:43.990Z,0
2018-08-20T03:42:54.209Z,0
2018-08-20T03:44:04.366Z,0
2018-08-20T03:45:14.528Z,0
2018-08-20T03:46:24.662Z,0
2018-08-20T03:47:35.798Z,0
2018-08-20T03:48:45.914Z,0
2018-08-20T03:49:56.127Z,0
2018-08-20T03:51:06.283Z,0
2018-08-20T03:52:16.413Z,0
2018-08-20T03:53:26.673Z,0
2018-08-20T03:54:36.866Z,0
2018-08-20T03:55:46.998Z,0
2018-08-20T03:56:56.527Z,0
2018-08-20T03:58:06.665Z,0
2018-08-20T03:59:16.595Z,0
2018-08-20T04:00:26.804Z,0
2018-08-20T04:01:36.424Z,0
2018-08-20T04:02:46.352Z,5
2018-08-20T04:03:56.547Z,5
2018-08-20T04:05:07.275Z,5
2018-08-20T04:06:17.715Z,5
2018-08-20T04:07:27.847Z,5
2018-08-20T04:08:37.776Z,5
2018-08-20T04:09:47.907Z,5
2018-08-20T04:10:58.076Z,5
2018-08-20T04:12:08.202Z,10
2018-08-20T04:13:18.446Z,10
2018-08-20T04:14:28.633Z,10
2018-08-20T04:15:38.822Z,10
2018-08-20T04:16:49.035Z,10
2018-08-20T04:17:59.218Z,10
2018-08-20T04:19:09.409Z,15
2018-08-20T04:20:19.533Z,15
2018-08-20T04:21:30.623Z,15
2018-08-20T04:22:41.013Z,15
2018-08-20T04:23:51.134Z,15
2018-08-20T04:25:01.087Z,20
2018-08-20T04:26:11.383Z,20
2018-08-20T04:27:21.624Z,20
2018-08-20T04:28:31.779Z,20
2018-08-20T04:29:43.063Z,25
2018-08-20T04:30:53.750Z,25
2018-08-20T04:32:03.956Z,25
2018-08-20T04:33:13.831Z,25
2018-08-20T04:34:23.960Z,30
2018-08-20T04:35:34.227Z,30
2018-08-20T04:36:44.587Z,30
2018-08-20T04:37:54.768Z,30
2018-08-20T04:39:04.906Z,30
2018-08-20T04:40:15.047Z,35
2018-08-20T04:41:25.196Z,35
2018-08-20T04:42:35.102Z,40
2018-08-20T04:43:45.240Z,40
2018-08-20T04:44:55.017Z,35
2018-08-20T04:46:04.906Z,40
2018-08-20T04:47:14.792Z,40
2018-08-20T04:48:25.176Z,40
2018-08-20T04:49:35.332Z,40
2018-08-20T04:50:46.204Z,40
2018-08-20T04:51:56.420Z,40
2018-08-20T04:53:06.574Z,40
2018-08-20T04:54:16.704Z,40
2018-08-20T04:55:26.591Z,40
2018-08-20T04:56:36.745Z,40
2018-08-20T04:57:46.904Z,40
2018-08-20T04:58:57.055Z,40
2018-08-20T05:00:07.255Z,35
2018-08-20T05:01:17.393Z,35
2018-08-20T05:02:27.554Z,40
2018-08-20T05:03:37.705Z,45
2018-08-20T05:04:47.854Z,40
2018-08-20T05:05:58.067Z,45
2018-08-20T05:07:08.236Z,45
2018-08-20T05:08:18.459Z,45
2018-08-20T05:09:28.612Z,45
2018-08-20T05:10:38.817Z,45
2018-08-20T05:11:49.097Z,45
2018-08-20T05:12:58.873Z,50
2018-08-20T05:14:09.008Z,55
2018-08-20T05:15:19.133Z,60
2018-08-20T05:16:29.429Z,60
2018-08-20T05:17:39.601Z,65
2018-08-20T05:18:49.882Z,60
2018-08-20T05:19:59.807Z,60
2018-08-20T05:21:09.922Z,60
2018-08-20T05:22:19.810Z,60
2018-08-20T05:23:29.941Z,65
2018-08-20T05:24:39.560Z,70
2018-08-20T05:25:49.831Z,75
2018-08-20T05:27:00.009Z,90
2018-08-20T05:28:10.235Z,90
2018-08-20T05:29:20.640Z,95
2018-08-20T05:30:30.814Z,100
2018-08-20T05:31:40.951Z,100
2018-08-20T05:32:51.073Z,100
2018-08-20T05:34:01.251Z,100
2018-08-20T05:35:11.398Z,105
2018-08-20T05:36:21.548Z,105
2018-08-20T05:37:31.445Z,100
2018-08-20T05:38:41.676Z,100
2018-08-20T05:39:51.809Z,105
2018-08-20T05:41:01.701Z,120
2018-08-20T05:42:12.133Z,135
2018-08-20T05:43:22.284Z,130
2018-08-20T05:44:32.481Z,135
2018-08-20T05:45:42.612Z,140
2018-08-20T05:46:52.489Z,145
2018-08-20T05:48:02.644Z,140
2018-08-20T05:49:12.794Z,135
2018-08-20T05:50:22.959Z,135
2018-08-20T05:51:32.726Z,135
2018-08-20T05:52:43.295Z,140
2018-08-20T05:53:53.590Z,140
2018-08-20T05:55:03.789Z,130
2018-08-20T05:56:13.797Z,135
2018-08-20T05:57:23.947Z,140
2018-08-20T05:58:34.084Z,150
2018-08-20T05:59:44.260Z,150
2018-08-20T06:00:54.165Z,140
2018-08-20T06:02:04.357Z,135
2018-08-20T06:03:14.508Z,130
2018-08-20T06:04:24.681Z,120
2018-08-20T06:05:34.882Z,120
2018-08-20T06:06:45.039Z,125
2018-08-20T06:07:55.511Z,125
2018-08-20T06:09:05.722Z,130
2018-08-20T06:10:15.895Z,135
2018-08-20T06:11:26.039Z,145
2018-08-20T06:12:36.257Z,155
2018-08-20T06:13:46.446Z,160
2018-08-20T06:14:56.633Z,165
2018-08-20T06:16:06.840Z,160
2018-08-20T06:17:17.042Z,155
2018-08-20T06:18:27.027Z,150
2018-08-20T06:19:37.169Z,150
2018-08-20T06:20:47.351Z,155
2018-08-20T06:21:57.236Z,165
2018-08-20T06:23:07.106Z,180
2018-08-20T06:24:17.284Z,195
2018-08-20T06:25:27.482Z,185
2018-08-20T06:26:37.643Z,175
2018-08-20T06:27:47.791Z,170
2018-08-20T06:28:57.673Z,165
2018-08-20T06:30:07.802Z,165
2018-08-20T06:31:17.943Z,160
2018-08-20T06:32:28.106Z,155
2018-08-20T06:33:38.275Z,165
2018-08-20T06:34:48.460Z,155
2018-08-20T06:35:58.831Z,155
2018-08-20T06:37:08.971Z,160
2018-08-20T06:38:18.745Z,160
2018-08-20T06:39:28.938Z,155
2018-08-20T06:40:39.136Z,155
2018-08-20T06:41:49.449Z,155
2018-08-20T06:42:59.601Z,160
2018-08-20T06:44:09.944Z,160
2018-08-20T06:45:20.098Z,155
2018-08-20T06:46:30.321Z,160
2018-08-20T06:47:40.482Z,165
2018-08-20T06:48:50.910Z,175
2018-08-20T06:50:01.039Z,175
2018-08-20T06:51:10.971Z,185
2018-08-20T06:52:20.881Z,195
2018-08-20T06:53:31.047Z,200
2018-08-20T06:54:41.419Z,200
2018-08-20T06:55:51.201Z,205
2018-08-20T06:57:01.141Z,215
2018-08-20T06:58:11.380Z,225
2018-08-20T06:59:22.521Z,240
2018-08-20T07:00:32.905Z,250
2018-08-20T07:01:43.080Z,240
2018-08-20T07:02:53.324Z,230
2018-08-20T07:04:03.466Z,225
2018-08-20T07:05:13.646Z,210
2018-08-20T07:06:25.111Z,200
2018-08-20T07:07:35.337Z,195
2018-08-20T07:08:45.228Z,195
2018-08-20T07:09:55.399Z,195
2018-08-20T07:11:05.518Z,195
2018-08-20T07:12:15.734Z,195
2018-08-20T07:13:25.857Z,205
2018-08-20T07:14:36.003Z,215
2018-08-20T07:15:46.143Z,215
2018-08-20T07:16:56.346Z,210
2018-08-20T07:18:06.505Z,205
2018-08-20T07:19:16.684Z,195
2018-08-20T07:20:26.828Z,195
2018-08-20T07:21:36.986Z,195
2018-08-20T07:22:47.362Z,200
2018-08-20T07:23:58.065Z,200
2018-08-20T07:25:08.024Z,200
2018-08-20T07:26:18.176Z,190
2018-08-20T07:27:28.177Z,190
2018-08-20T07:28:38.381Z,195
2018-08-20T07:29:48.245Z,190
2018-08-20T07:30:58.403Z,185
2018-08-20T07:32:08.545Z,180
2018-08-20T07:33:18.431Z,185
2018-08-20T07:34:28.577Z,190
2018-08-20T07:35:38.686Z,195
2018-08-20T07:36:48.819Z,210
2018-08-20T07:37:58.961Z,225
2018-08-20T07:39:09.136Z,220
2018-08-20T07:40:19.331Z,190
2018-08-20T07:41:29.464Z,170
2018-08-20T07:42:39.858Z,185
2018-08-20T07:43:50.365Z,190
2018-08-20T07:45:00.539Z,180
2018-08-20T07:46:10.695Z,145
2018-08-20T07:47:20.842Z,120
2018-08-20T07:48:30.973Z,115
2018-08-20T07:49:40.767Z,165
2018-08-20T07:50:51.232Z,205
2018-08-20T07:52:01.511Z,225
2018-08-20T07:53:11.653Z,255
2018-08-20T07:54:21.858Z,265
2018-08-20T07:55:32.112Z,265
2018-08-20T07:56:42.273Z,270
2018-08-20T07:57:52.437Z,285
2018-08-20T07:59:02.607Z,290
2018-08-20T08:00:12.753Z,290
2018-08-20T08:01:23.147Z,275
2018-08-20T08:02:33.056Z,260
2018-08-20T08:03:42.949Z,250
2018-08-20T08:04:52.726Z,245
2018-08-20T08:06:02.551Z,250
2018-08-20T08:07:12.677Z,240
2018-08-20T08:08:22.872Z,230
2018-08-20T08:09:33.015Z,225
2018-08-20T08:10:43.228Z,215
2018-08-20T08:11:53.364Z,230
2018-08-20T08:13:03.505Z,250
2018-08-20T08:14:13.989Z,260
2018-08-20T08:15:23.697Z,250
2018-08-20T08:16:33.902Z,225
2018-08-20T08:17:44.061Z,225
2018-08-20T08:18:53.862Z,235
2018-08-20T08:20:04.285Z,245
2018-08-20T08:21:14.456Z,235
2018-08-20T08:22:24.627Z,230
2018-08-20T08:23:34.818Z,240
2018-08-20T08:24:45.034Z,265
2018-08-20T08:25:55.238Z,270
2018-08-20T08:27:05.485Z,285
2018-08-20T08:28:15.485Z,305
2018-08-20T08:29:25.621Z,315
2018-08-20T08:30:35.759Z,305
2018-08-20T08:31:46.940Z,300
2018-08-20T08:32:57.126Z,335
2018-08-20T08:34:07.277Z,340
2018-08-20T08:35:17.451Z,330
2018-08-20T08:36:27.608Z,320
2018-08-20T08:37:37.846Z,285
2018-08-20T08:38:48.088Z,250
2018-08-20T08:39:58.236Z,240
2018-08-20T08:41:08.452Z,225
2018-08-20T08:42:18.389Z,200
2018-08-20T08:43:28.574Z,175
2018-08-20T08:44:38.832Z,210
2018-08-20T08:45:49.037Z,255
2018-08-20T08:46:59.217Z,270
2018-08-20T08:48:08.914Z,265
2018-08-20T08:49:18.909Z,255
2018-08-20T08:50:29.070Z,240
2018-08-20T08:51:39.199Z,215
2018-08-20T08:52:49.395Z,220
2018-08-20T08:53:59.529Z,240
2018-08-20T08:55:09.831Z,250
2018-08-20T08:56:20.117Z,270
2018-08-20T08:57:30.317Z,265
2018-08-20T08:58:40.572Z,260
2018-08-20T08:59:50.774Z,260
2018-08-20T09:01:00.952Z,250
2018-08-20T09:02:10.834Z,265
2018-08-20T09:03:20.987Z,285
2018-08-20T09:04:30.874Z,290
2018-08-20T09:05:41.044Z,300
2018-08-20T09:06:51.172Z,315
2018-08-20T09:08:00.872Z,335
2018-08-20T09:09:11.026Z,370
2018-08-20T09:10:21.211Z,415
2018-08-20T09:11:31.411Z,430
2018-08-20T09:12:41.570Z,450
2018-08-20T09:13:52.356Z,440
2018-08-20T09:15:02.154Z,395
2018-08-20T09:16:13.326Z,325
2018-08-20T09:17:23.522Z,250
2018-08-20T09:18:33.729Z,225
2018-08-20T09:19:44.592Z,205
2018-08-20T09:20:54.737Z,220
2018-08-20T09:22:04.614Z,235
2018-08-20T09:23:14.764Z,255
2018-08-20T09:24:24.345Z,260
2018-08-20T09:25:34.516Z,260
2018-08-20T09:26:44.824Z,270
2018-08-20T09:27:55.025Z,250
2018-08-20T09:29:05.229Z,230
2018-08-20T09:30:15.112Z,230
2018-08-20T09:31:24.995Z,215
2018-08-20T09:32:35.026Z,195
2018-08-20T09:33:45.269Z,170
2018-08-20T09:34:55.401Z,160
2018-08-20T09:36:05.630Z,155
2018-08-20T09:37:15.809Z,160
2018-08-20T09:38:26.551Z,190
2018-08-20T09:39:36.762Z,240
2018-08-20T09:40:47.164Z,290
2018-08-20T09:41:57.326Z,300
2018-08-20T09:43:07.504Z,300
2018-08-20T09:44:17.022Z,290
2018-08-20T09:45:27.280Z,270
2018-08-20T09:46:37.476Z,245
2018-08-20T09:47:47.646Z,220
2018-08-20T09:48:57.792Z,205
2018-08-20T09:50:08.000Z,185
2018-08-20T09:51:18.134Z,175
2018-08-20T09:52:28.271Z,165
2018-08-20T09:53:38.665Z,150
2018-08-20T09:54:48.813Z,135
2018-08-20T09:55:58.974Z,125
2018-08-20T09:57:09.134Z,115
2018-08-20T09:58:19.020Z,110
2018-08-20T09:59:28.905Z,100
2018-08-20T10:00:39.045Z,110
2018-08-20T10:01:49.194Z,120
2018-08-20T10:02:59.358Z,135
2018-08-20T10:04:09.492Z,165
2018-08-20T10:05:19.686Z,190
2018-08-20T10:06:29.924Z,220
2018-08-20T10:07:40.050Z,245
2018-08-20T10:08:51.310Z,275
2018-08-20T10:10:01.540Z,265
2018-08-20T10:11:11.447Z,240
2018-08-20T10:12:21.367Z,215
2018-08-20T10:13:31.513Z,185
2018-08-20T10:14:41.647Z,170
2018-08-20T10:15:52.076Z,155
2018-08-20T10:17:02.228Z,140
2018-08-20T10:18:12.379Z,140
2018-08-20T10:19:22.521Z,150
2018-08-20T10:20:32.668Z,145
2018-08-20T10:21:42.802Z,160
2018-08-20T10:22:53.015Z,185
2018-08-20T10:24:02.819Z,220
2018-08-20T10:25:13.081Z,225
2018-08-20T10:26:23.236Z,245
2018-08-20T10:27:33.440Z,270
2018-08-20T10:28:43.656Z,280
2018-08-20T10:29:53.819Z,295
2018-08-20T10:31:04.030Z,300
2018-08-20T10:32:14.378Z,295
2018-08-20T10:33:24.616Z,280
2018-08-20T10:34:34.581Z,240
2018-08-20T10:35:44.704Z,210
2018-08-20T10:36:54.833Z,220
2018-08-20T10:38:05.729Z,225
2018-08-20T10:39:16.045Z,235
2018-08-20T10:40:26.282Z,270
2018-08-20T10:41:36.495Z,305
2018-08-20T10:42:46.665Z,330
2018-08-20T10:43:56.883Z,350
2018-08-20T10:45:07.065Z,325
2018-08-20T10:46:17.192Z,305
2018-08-20T10:47:27.368Z,300
2018-08-20T10:48:37.567Z,285
2018-08-20T10:49:47.691Z,245
2018-08-20T10:50:57.565Z,230
2018-08-20T10:52:07.452Z,235
2018-08-20T10:53:17.599Z,250
2018-08-20T10:54:27.737Z,255
2018-08-20T10:55:37.735Z,270
2018-08-20T10:56:47.653Z,275
2018-08-20T10:57:57.592Z,260
2018-08-20T10:59:07.831Z,245
2018-08-20T11:00:17.829Z,230
2018-08-20T11:01:27.990Z,220
2018-08-20T11:02:37.877Z,235
2018-08-20T11:03:48.015Z,260
2018-08-20T11:04:58.144Z,290
2018-08-20T11:06:08.339Z,335
2018-08-20T11:07:18.481Z,385
2018-08-20T11:08:28.661Z,435
2018-08-20T11:09:38.806Z,455
2018-08-20T11:10:48.788Z,440
2018-08-20T11:11:58.690Z,415
2018-08-20T11:13:08.829Z,395
2018-08-20T11:14:18.987Z,365
2018-08-20T11:15:29.179Z,335
2018-08-20T11:16:39.357Z,300
2018-08-20T11:17:49.637Z,275
2018-08-20T11:19:00.228Z,230
2018-08-20T11:20:10.528Z,200
2018-08-20T11:21:21.423Z,185
2018-08-20T11:22:31.206Z,190
2018-08-20T11:23:41.346Z,205
2018-08-20T11:24:51.490Z,215
2018-08-20T11:26:01.436Z,235
2018-08-20T11:27:11.790Z,250
2018-08-20T11:28:22.006Z,275
2018-08-20T11:29:32.275Z,305
2018-08-20T11:30:42.560Z,315
2018-08-20T11:31:52.772Z,345
2018-08-20T11:33:03.093Z,370
2018-08-20T11:34:13.230Z,395
2018-08-20T11:35:23.597Z,430
2018-08-20T11:36:33.831Z,470
2018-08-20T11:37:44.000Z,480
2018-08-20T11:38:54.141Z,450
2018-08-20T11:40:04.391Z,415
2018-08-20T11:41:14.542Z,405
2018-08-20T11:42:24.791Z,420
2018-08-20T11:43:35.049Z,435
2018-08-20T11:44:45.517Z,440
2018-08-20T11:45:55.724Z,450
2018-08-20T11:47:05.925Z,460
2018-08-20T11:48:16.068Z,455
2018-08-20T11:49:26.513Z,450
2018-08-20T11:50:36.657Z,430
2018-08-20T11:51:46.833Z,415
2018-08-20T11:52:56.794Z,395
2018-08-20T11:54:07.025Z,390
2018-08-20T11:55:17.225Z,405
2018-08-20T11:56:27.125Z,405
2018-08-20T11:57:37.280Z,400
2018-08-20T11:58:47.437Z,395
2018-08-20T11:59:57.634Z,395
2018-08-20T12:01:07.811Z,400
2018-08-20T12:02:17.953Z,410
2018-08-20T12:03:27.941Z,410
2018-08-20T12:04:38.062Z,410
2018-08-20T12:05:48.212Z,400
2018-08-20T12:06:58.588Z,380
2018-08-20T12:08:08.788Z,350
2018-08-20T12:09:18.973Z,340
2018-08-20T12:10:28.870Z,310
2018-08-20T12:11:39.025Z,295
2018-08-20T12:12:49.214Z,290
2018-08-20T12:13:59.383Z,295
2018-08-20T12:15:09.578Z,300
2018-08-20T12:16:20.742Z,305
2018-08-20T12:17:30.727Z,305
2018-08-20T12:18:40.622Z,310
2018-08-20T12:19:50.920Z,300
2018-08-20T12:21:01.152Z,300
2018-08-20T12:22:11.429Z,295
2018-08-20T12:23:21.699Z,285
2018-08-20T12:24:31.592Z,270
2018-08-20T12:25:42.713Z,255
2018-08-20T12:26:52.848Z,255
2018-08-20T12:28:03.083Z,250
2018-08-20T12:29:13.234Z,255
2018-08-20T12:30:23.363Z,260
2018-08-20T12:31:33.578Z,275
2018-08-20T12:32:43.761Z,290
2018-08-20T12:33:53.966Z,295
2018-08-20T12:35:04.189Z,305
2018-08-20T12:36:14.391Z,305
2018-08-20T12:37:24.668Z,320
2018-08-20T12:38:34.826Z,330
2018-08-20T12:39:45.089Z,350
2018-08-20T12:40:55.096Z,380
2018-08-20T12:42:05.295Z,400
2018-08-20T12:43:15.431Z,415
2018-08-20T12:44:25.590Z,430
2018-08-20T12:45:36.743Z,450
2018-08-20T12:46:46.969Z,455
2018-08-20T12:47:57.171Z,450
2018-08-20T12:49:07.448Z,445
2018-08-20T12:50:17.645Z,435
2018-08-20T12:51:27.811Z,420
2018-08-20T12:52:38.083Z,405
2018-08-20T12:53:48.270Z,390
2018-08-20T12:54:58.431Z,385
2018-08-20T12:56:08.657Z,390
2018-08-20T12:57:19.130Z,390
2018-08-20T12:58:29.348Z,385
2018-08-20T12:59:39.483Z,390
2018-08-20T13:00:49.864Z,390
2018-08-20T13:02:00.096Z,360
2018-08-20T13:03:10.290Z,340
2018-08-20T13:04:20.503Z,345
2018-08-20T13:05:30.322Z,370
2018-08-20T13:06:40.478Z,385
2018-08-20T13:07:50.613Z,410
2018-08-20T13:09:01.363Z,435
2018-08-20T13:10:13.536Z,460
2018-08-20T13:11:23.693Z,450
2018-08-20T13:12:33.855Z,415
2018-08-20T13:13:44.016Z,385
2018-08-20T13:14:54.206Z,360
2018-08-20T13:16:05.091Z,365
2018-08-20T13:17:15.407Z,395
2018-08-20T13:18:25.241Z,440
2018-08-20T13:19:35.457Z,435
2018-08-20T13:20:45.609Z,430
2018-08-20T13:21:55.775Z,440
2018-08-20T13:23:06.016Z,445
2018-08-20T13:24:15.903Z,440
2018-08-20T13:25:26.042Z,415
2018-08-20T13:26:36.193Z,390
2018-08-20T13:27:46.091Z,345
2018-08-20T13:28:57.372Z,290
2018-08-20T13:30:07.631Z,255
2018-08-20T13:31:17.556Z,230
2018-08-20T13:32:27.368Z,215
2018-08-20T13:33:37.564Z,210
2018-08-20T13:34:47.448Z,200
2018-08-20T13:35:58.618Z,175
2018-08-20T13:37:08.586Z,165
2018-08-20T13:38:18.733Z,150
2018-08-20T13:39:28.890Z,140
2018-08-20T13:40:39.312Z,140
2018-08-20T13:41:49.788Z,135
2018-08-20T13:43:00.006Z,135
2018-08-20T13:44:10.645Z,135
2018-08-20T13:45:20.822Z,135
2018-08-20T13:46:31.017Z,135
2018-08-20T13:47:41.155Z,140
2018-08-20T13:48:51.313Z,160
2018-08-20T13:50:01.156Z,165
2018-08-20T13:51:11.333Z,170
2018-08-20T13:52:21.596Z,170
2018-08-20T13:53:31.731Z,180
2018-08-20T13:54:41.896Z,185
2018-08-20T13:55:52.126Z,195
2018-08-20T13:57:02.295Z,205
2018-08-20T13:58:12.489Z,200
2018-08-20T13:59:22.848Z,205
2018-08-20T14:00:32.736Z,205
2018-08-20T14:01:42.879Z,205
2018-08-20T14:02:52.783Z,205
2018-08-20T14:04:02.938Z,205
2018-08-20T14:05:13.135Z,205
2018-08-20T14:06:22.943Z,205
2018-08-20T14:07:33.118Z,220
2018-08-20T14:08:43.266Z,240
2018-08-20T14:09:53.453Z,255
2018-08-20T14:11:03.379Z,265
2018-08-20T14:12:13.740Z,265
2018-08-20T14:13:23.974Z,265
2018-08-20T14:14:33.893Z,260
2018-08-20T14:15:44.791Z,245
2018-08-20T14:16:54.911Z,240
2018-08-20T14:18:05.061Z,240
2018-08-20T14:19:15.014Z,240
2018-08-20T14:20:25.183Z,245
2018-08-20T14:21:35.349Z,250
2018-08-20T14:22:45.511Z,255
2018-08-20T14:23:55.665Z,255
2018-08-20T14:25:05.788Z,255
2018-08-20T14:26:16.001Z,250
2018-08-20T14:27:26.162Z,245
2018-08-20T14:28:36.333Z,240
2018-08-20T14:29:46.246Z,230
2018-08-20T14:30:55.979Z,230
2018-08-20T14:32:06.174Z,225
2018-08-20T14:33:16.341Z,225
2018-08-20T14:34:26.507Z,225
2018-08-20T14:35:36.653Z,240
2018-08-20T14:36:47.448Z,250
2018-08-20T14:37:57.673Z,250
2018-08-20T14:39:07.850Z,255
2018-08-20T14:40:17.772Z,260
2018-08-20T14:41:27.902Z,250
2018-08-20T14:42:38.355Z,230
2018-08-20T14:43:48.555Z,215
2018-08-20T14:44:58.750Z,210
2018-08-20T14:46:08.631Z,210
2018-08-20T14:47:18.835Z,215
2018-08-20T14:48:28.726Z,210
2018-08-20T14:49:38.646Z,205
2018-08-20T14:50:48.829Z,190
2018-08-20T14:51:59.209Z,185
2018-08-20T14:53:09.390Z,190
2018-08-20T14:54:19.557Z,200
2018-08-20T14:55:29.731Z,215
2018-08-20T14:56:39.870Z,220
2018-08-20T14:57:50.033Z,220
2018-08-20T14:58:59.940Z,215
2018-08-20T15:00:10.171Z,210
2018-08-20T15:01:20.534Z,210
2018-08-20T15:02:30.600Z,205
2018-08-20T15:03:40.787Z,200
2018-08-20T15:04:50.752Z,195
2018-08-20T15:06:00.650Z,185
2018-08-20T15:07:10.822Z,180
2018-08-20T15:08:20.753Z,175
2018-08-20T15:09:32.034Z,175
2018-08-20T15:10:42.267Z,175
2018-08-20T15:11:52.431Z,175
2018-08-20T15:13:02.395Z,175
2018-08-20T15:14:12.606Z,175
2018-08-20T15:15:23.566Z,175
2018-08-20T15:16:33.962Z,175
2018-08-20T15:17:44.190Z,180
2018-08-20T15:18:54.329Z,190
2018-08-20T15:20:04.547Z,190
2018-08-20T15:21:14.760Z,190
2018-08-20T15:22:24.932Z,185
2018-08-20T15:23:35.091Z,180
2018-08-20T15:24:45.368Z,175
2018-08-20T15:25:55.512Z,175
2018-08-20T15:27:05.488Z,170
2018-08-20T15:28:16.646Z,165
2018-08-20T15:29:26.837Z,155
2018-08-20T15:30:37.003Z,155
2018-08-20T15:31:46.926Z,155
2018-08-20T15:32:57.315Z,155
2018-08-20T15:34:07.503Z,150
2018-08-20T15:35:17.694Z,145
2018-08-20T15:36:27.885Z,145
2018-08-20T15:37:38.059Z,145
2018-08-20T15:38:48.249Z,140
2018-08-20T15:39:58.386Z,140
2018-08-20T15:41:08.301Z,140
2018-08-20T15:42:18.493Z,145
2018-08-20T15:43:28.643Z,145
2018-08-20T15:44:38.784Z,140
2018-08-20T15:45:48.720Z,135
2018-08-20T15:46:58.880Z,130
2018-08-20T15:48:09.299Z,130
2018-08-20T15:49:19.491Z,130
2018-08-20T15:50:29.633Z,130
2018-08-20T15:51:39.777Z,130
2018-08-20T15:52:49.977Z,130
2018-08-20T15:54:00.148Z,125
2018-08-20T15:55:10.330Z,125
2018-08-20T15:56:20.511Z,125
2018-08-20T15:57:30.712Z,120
2018-08-20T15:58:40.863Z,115
2018-08-20T15:59:51.028Z,115
2018-08-20T16:01:01.230Z,110
2018-08-20T16:02:11.816Z,110
2018-08-20T16:03:22.035Z,110
2018-08-20T16:04:32.186Z,110
2018-08-20T16:05:42.401Z,110
2018-08-20T16:06:52.631Z,105
2018-08-20T16:08:02.838Z,105
2018-08-20T16:09:12.998Z,100
2018-08-20T16:10:24.163Z,95
2018-08-20T16:11:34.411Z,95
2018-08-20T16:12:44.694Z,95
2018-08-20T16:13:54.851Z,95
2018-08-20T16:15:05.054Z,95
2018-08-20T16:16:15.272Z,90
2018-08-20T16:17:25.462Z,90
2018-08-20T16:18:35.599Z,85
2018-08-20T16:19:45.967Z,85
2018-08-20T16:20:55.909Z,85
2018-08-20T16:22:05.946Z,85
2018-08-20T16:23:16.134Z,85
2018-08-20T16:24:26.298Z,85
2018-08-20T16:25:36.468Z,85
2018-08-20T16:26:47.066Z,85